Time;durP1;ratioP1;P1;durP2;ratioP2;P2;SDS_P1;SDS_P2;PMS_P1;PMS_P2;Temp;Humidity;BMP_temperature;BMP_pressure;BME280_temperature;BME280_humidity;BME280_pressure;Samples;Min_cycle;Max_cycle;Signal;HPM_P1;HPM_P2
2023/06/01 00:02:19;;;;;;;6.83;4.37;;;14.90;99.90;;;;;;5117115;28;20515;-58
2023/06/01 00:04:48;;;;;;;4.90;4.27;;;14.90;99.90;;;;;;5117692;28;20459;-58
2023/06/01 00:07:15;;;;;;;9.27;4.77;;;14.80;99.90;;;;;;5117690;28;20512;-59
2023/06/01 00:09:43;;;;;;;4.80;4.00;;;14.70;99.90;;;;;;5117602;28;20914;-59
2023/06/01 00:12:11;;;;;;;9.07;4.90;;;14.70;99.90;;;;;;5118734;28;20498;-58
2023/06/01 00:14:38;;;;;;;6.27;4.37;;;14.60;1.00;;;;;;5118075;28;20777;-58
2023/06/01 00:17:07;;;;;;;4.70;4.20;;;14.60;1.00;;;;;;5117574;28;20546;-59
2023/06/01 00:19:35;;;;;;;8.33;4.20;;;14.60;1.00;;;;;;5117865;27;20745;-57
2023/06/01 00:22:04;;;;;;;6.33;5.10;;;14.50;1.00;;;;;;5117822;28;20459;-58
2023/06/01 00:24:31;;;;;;;6.37;4.27;;;14.50;1.00;;;;;;5117624;28;20558;-57
2023/06/01 00:26:58;;;;;;;8.40;4.83;;;14.40;1.00;;;;;;5117039;28;20455;-58
2023/06/01 00:29:25;;;;;;;6.00;5.03;;;14.40;1.00;;;;;;5117947;28;20469;-58
2023/06/01 00:31:52;;;;;;;6.03;4.57;;;14.40;1.00;;;;;;5119051;28;20559;-58
2023/06/01 00:34:19;;;;;;;5.80;5.10;;;14.40;1.00;;;;;;5119094;28;20466;-58
2023/06/01 00:36:47;;;;;;;7.60;5.10;;;14.30;1.00;;;;;;5118693;28;20516;-57
2023/06/01 00:39:15;;;;;;;6.70;4.70;;;14.30;1.00;;;;;;5118882;28;20582;-58
2023/06/01 00:41:42;;;;;;;7.30;5.67;;;14.30;29.60;;;;;;5118716;28;20463;-57
2023/06/01 00:44:10;;;;;;;9.50;5.30;;;14.20;47.60;;;;;;5118431;28;20842;-58
2023/06/01 00:46:38;;;;;;;6.53;5.07;;;14.20;88.80;;;;;;5118300;28;20562;-58
2023/06/01 00:49:05;;;;;;;6.23;4.90;;;14.10;99.90;;;;;;5118624;28;20478;-57
2023/06/01 00:51:34;;;;;;;6.90;5.70;;;14.10;99.90;;;;;;5118515;28;20636;-58
2023/06/01 00:54:01;;;;;;;8.37;5.93;;;14.00;99.90;;;;;;5118640;28;20520;-57
2023/06/01 00:56:31;;;;;;;8.07;5.23;;;13.90;99.90;;;;;;5118890;28;20529;-57
2023/06/01 00:58:58;;;;;;;10.70;5.70;;;13.80;99.90;;;;;;5118521;28;20503;-58
2023/06/01 01:01:26;;;;;;;6.63;5.00;;;13.90;99.90;;;;;;5117975;28;20512;-57
2023/06/01 01:03:57;;;;;;;9.90;6.43;;;13.80;99.90;;;;;;5118123;28;20553;-59
2023/06/01 01:06:35;;;;;;;6.87;5.30;;;13.80;99.90;;;;;;5118502;28;20771;-56
2023/06/01 01:09:15;;;;;;;6.27;5.37;;;13.70;99.90;;;;;;5117446;28;20451;-58
2023/06/01 01:11:52;;;;;;;8.33;5.60;;;13.70;1.00;;;;;;5118354;28;20907;-57
2023/06/01 01:14:23;;;;;;;8.90;5.47;;;13.70;1.00;;;;;;5118222;28;20463;-57
2023/06/01 01:16:56;;;;;;;16.50;6.40;;;13.70;1.00;;;;;;5118028;28;20957;-55
2023/06/01 01:19:42;;;;;;;6.60;5.93;;;13.60;1.00;;;;;;5118293;28;20518;-55
2023/06/01 01:22:22;;;;;;;8.33;6.20;;;13.60;1.00;;;;;;5118552;28;20434;-57
2023/06/01 01:28:26;;;;;;;9.60;6.13;;;13.50;1.00;;;;;;5117301;28;20472;-56
2023/06/01 01:30:55;;;;;;;10.13;5.70;;;13.50;1.00;;;;;;5118153;28;20835;-56
2023/06/01 01:33:23;;;;;;;8.30;5.33;;;13.40;1.00;;;;;;5118313;28;20884;-57
2023/06/01 01:35:50;;;;;;;9.63;6.43;;;13.40;1.00;;;;;;5117923;28;20499;-57
2023/06/01 01:38:18;;;;;;;6.97;5.40;;;13.40;1.00;;;;;;5117843;28;20491;-57
2023/06/01 01:40:45;;;;;;;6.40;5.10;;;13.30;1.00;;;;;;5117722;28;20748;-55
2023/06/01 01:43:12;;;;;;;9.50;7.83;;;13.30;1.00;;;;;;5117524;28;20464;-58
2023/06/01 01:45:41;;;;;;;11.83;6.57;;;13.20;1.00;;;;;;5117962;28;20557;-57
2023/06/01 01:48:17;;;;;;;8.50;6.20;;;13.20;1.00;;;;;;5118092;28;20466;-57
2023/06/01 01:50:51;;;;;;;11.87;6.17;;;13.20;1.00;;;;;;5117540;28;20905;-58
2023/06/01 01:53:20;;;;;;;7.50;6.63;;;13.10;1.00;;;;;;5117995;28;20464;-57
2023/06/01 01:55:49;;;;;;;6.77;6.10;;;13.10;21.20;;;;;;5117615;28;20463;-57
2023/06/01 01:58:17;;;;;;;13.00;6.70;;;13.00;97.70;;;;;;5121534;28;20920;-56
2023/06/01 02:00:46;;;;;;;10.43;6.80;;;13.00;99.90;;;;;;5122070;28;20466;-59
2023/06/01 02:03:16;;;;;;;7.93;6.33;;;13.00;99.90;;;;;;5121866;28;20487;-57
2023/06/01 02:05:44;;;;;;;10.10;6.23;;;13.00;99.90;;;;;;5122035;28;20935;-58
2023/06/01 02:08:12;;;;;;;12.93;7.30;;;12.90;99.90;;;;;;5121991;28;20554;-56
2023/06/01 02:10:40;;;;;;;9.30;6.60;;;12.90;99.90;;;;;;5121588;28;20804;-57
2023/06/01 02:13:07;;;;;;;9.37;6.53;;;12.80;99.90;;;;;;5121505;28;20463;-57
2023/06/01 02:15:35;;;;;;;10.17;6.87;;;12.80;99.90;;;;;;5121652;28;20459;-56
2023/06/01 02:18:03;;;;;;;9.23;7.13;;;12.80;99.90;;;;;;5121178;28;20544;-57
2023/06/01 02:20:30;;;;;;;11.50;6.93;;;12.70;99.90;;;;;;5121570;28;20744;-57
2023/06/01 02:22:57;;;;;;;11.80;6.83;;;12.70;99.90;;;;;;5121688;28;20482;-57
2023/06/01 02:25:25;;;;;;;8.80;6.33;;;12.70;99.90;;;;;;5121395;28;20459;-58
2023/06/01 02:27:52;;;;;;;10.80;7.03;;;12.70;99.90;;;;;;5121406;28;20456;-58
2023/06/01 02:30:19;;;;;;;10.50;7.53;;;12.60;99.90;;;;;;5121467;28;20464;-58
2023/06/01 02:32:48;;;;;;;10.80;7.90;;;12.50;99.90;;;;;;5121228;28;20460;-58
2023/06/01 02:35:16;;;;;;;9.10;6.80;;;12.50;99.90;;;;;;5121745;28;20463;-57
2023/06/01 02:37:43;;;;;;;10.87;6.87;;;12.50;99.90;;;;;;5121206;28;20459;-59
2023/06/01 02:40:12;;;;;;;9.53;7.53;;;12.50;99.90;;;;;;5121630;28;20430;-57
2023/06/01 02:42:39;;;;;;;9.20;7.53;;;12.50;99.90;;;;;;5120769;28;20510;-57
2023/06/01 02:45:08;;;;;;;11.50;8.20;;;12.40;99.90;;;;;;5120858;27;20466;-57
2023/06/01 02:47:35;;;;;;;9.40;8.10;;;12.30;99.90;;;;;;5121333;28;20923;-57
2023/06/01 02:50:04;;;;;;;10.70;7.03;;;12.30;99.90;;;;;;5121087;28;20441;-58
2023/06/01 02:52:34;;;;;;;11.30;9.33;;;12.30;1.00;;;;;;5121459;28;20463;-58
2023/06/01 02:55:02;;;;;;;10.77;9.20;;;12.20;1.00;;;;;;5121327;28;20459;-57
2023/06/01 02:57:29;;;;;;;11.30;9.20;;;12.10;1.00;;;;;;5120935;28;20494;-57
2023/06/01 02:59:56;;;;;;;13.53;9.40;;;12.10;1.00;;;;;;5120934;28;20804;-58
2023/06/01 03:02:23;;;;;;;15.00;10.20;;;12.00;1.00;;;;;;5120671;28;20466;-56
2023/06/01 03:04:50;;;;;;;16.67;10.30;;;12.10;1.00;;;;;;5120582;28;20459;-57
2023/06/01 03:07:18;;;;;;;13.50;11.00;;;12.10;1.00;;;;;;5119848;28;20548;-57
2023/06/01 03:09:46;;;;;;;14.37;10.70;;;12.00;1.00;;;;;;5120800;28;20929;-57
2023/06/01 03:12:13;;;;;;;15.80;11.80;;;11.90;1.00;;;;;;5120894;28;20473;-58
2023/06/01 03:14:40;;;;;;;15.13;11.50;;;11.90;1.00;;;;;;5120076;28;20444;-57
2023/06/01 03:17:08;;;;;;;18.70;11.63;;;11.90;1.00;;;;;;5120412;28;20885;-58
2023/06/01 03:19:35;;;;;;;21.03;12.40;;;11.80;34.50;;;;;;5120524;28;20487;-58
2023/06/01 03:22:02;;;;;;;14.30;11.77;;;11.80;74.10;;;;;;5120729;28;20463;-57
2023/06/01 03:24:29;;;;;;;17.93;12.70;;;11.70;99.90;;;;;;5119728;28;20463;-58
2023/06/01 03:26:57;;;;;;;22.00;12.50;;;11.70;99.90;;;;;;5120193;28;20498;-58
2023/06/01 03:29:25;;;;;;;17.90;13.50;;;11.80;99.90;;;;;;5120529;28;20890;-58
2023/06/01 03:31:52;;;;;;;20.63;14.23;;;11.90;1.00;;;;;;5120440;28;20476;-58
2023/06/01 03:34:21;;;;;;;19.13;14.07;;;12.00;1.00;;;;;;5120317;28;20467;-58
2023/06/01 03:36:48;;;;;;;16.73;12.77;;;12.10;1.00;;;;;;5119698;28;20506;-58
2023/06/01 03:39:16;;;;;;;20.60;14.60;;;12.10;1.00;;;;;;5119969;28;20786;-58
2023/06/01 03:41:46;;;;;;;23.20;15.83;;;12.10;99.90;;;;;;5120249;28;20459;-58
2023/06/01 03:44:14;;;;;;;29.00;16.40;;;12.00;1.00;;;;;;5120312;28;20459;-58
2023/06/01 03:46:41;;;;;;;22.73;15.80;;;12.00;1.00;;;;;;5119520;28;20434;-57
2023/06/01 03:49:09;;;;;;;26.60;16.70;;;12.00;1.00;;;;;;5119792;28;20452;-58
2023/06/01 03:51:36;;;;;;;22.97;18.10;;;12.00;1.00;;;;;;5120053;28;20430;-59
2023/06/01 03:54:03;;;;;;;21.93;17.53;;;12.00;1.00;;;;;;5119533;28;20463;-58
2023/06/01 03:56:30;;;;;;;26.57;17.77;;;12.00;1.00;;;;;;5120184;28;20931;-58
2023/06/01 03:58:58;;;;;;;22.40;17.37;;;11.80;57.80;;;;;;5119518;28;20491;-58
2023/06/01 04:01:29;;;;;;;23.73;16.67;;;11.80;99.90;;;;;;5119171;28;20476;-58
2023/06/01 04:03:56;;;;;;;25.17;16.20;;;11.80;99.90;;;;;;5120033;28;20486;-57
2023/06/01 04:06:24;;;;;;;25.20;16.60;;;11.90;99.90;;;;;;5120075;28;20524;-58
2023/06/01 04:08:55;;;;;;;26.70;20.53;;;11.90;99.90;;;;;;5117521;28;20460;-58
2023/06/01 04:11:23;;;;;;;22.47;16.37;;;11.90;99.90;;;;;;5119427;28;20459;-58
2023/06/01 04:13:50;;;;;;;22.63;15.60;;;12.00;99.90;;;;;;5119548;28;20562;-58
2023/06/01 04:16:17;;;;;;;19.10;16.30;;;12.00;99.90;;;;;;5119549;28;20438;-56
2023/06/01 04:18:46;;;;;;;22.43;16.93;;;12.00;99.90;;;;;;5118245;28;20488;-58
2023/06/01 04:21:13;;;;;;;23.17;16.63;;;11.80;99.90;;;;;;5118404;28;20498;-58
2023/06/01 04:23:42;;;;;;;24.60;17.23;;;11.80;99.90;;;;;;5119086;28;20481;-57
2023/06/01 04:26:09;;;;;;;24.57;19.10;;;11.80;99.90;;;;;;5119499;28;20459;-58
2023/06/01 04:28:43;;;;;;;20.50;16.63;;;11.70;99.90;;;;;;5119341;28;20447;-59
2023/06/01 04:31:16;;;;;;;21.23;17.57;;;11.70;99.90;;;;;;5118615;28;20533;-58
2023/06/01 04:33:52;;;;;;;27.43;18.40;;;11.70;99.90;;;;;;5119016;28;20513;-57
2023/06/01 04:36:21;;;;;;;24.53;17.93;;;11.60;99.90;;;;;;5118936;28;20554;-58
2023/06/01 04:38:51;;;;;;;24.30;19.50;;;11.60;99.90;;;;;;5118316;28;20468;-58
2023/06/01 04:41:20;;;;;;;21.87;16.87;;;11.50;99.90;;;;;;5118451;28;20504;-58
2023/06/01 04:43:52;;;;;;;25.27;17.47;;;11.50;99.90;;;;;;5118456;28;20463;-58
2023/06/01 04:46:20;;;;;;;24.47;18.23;;;11.40;99.90;;;;;;5118950;28;20467;-58
2023/06/01 04:48:51;;;;;;;27.40;18.90;;;11.40;1.00;;;;;;5118452;28;20430;-58
2023/06/01 04:51:19;;;;;;;27.97;20.20;;;11.40;1.00;;;;;;5118297;28;20509;-59
2023/06/01 04:53:49;;;;;;;24.90;18.30;;;11.40;1.00;;;;;;5118813;28;20460;-58
2023/06/01 04:56:18;;;;;;;26.93;19.30;;;11.50;1.00;;;;;;5118299;28;20880;-59
2023/06/01 04:58:47;;;;;;;25.77;19.33;;;11.50;1.00;;;;;;5118380;28;20765;-58
2023/06/01 05:01:15;;;;;;;28.90;18.53;;;11.40;1.00;;;;;;5118121;28;20470;-57
2023/06/01 05:03:43;;;;;;;26.47;18.10;;;11.40;1.00;;;;;;5118154;28;20464;-57
2023/06/01 05:06:13;;;;;;;29.83;19.90;;;11.40;1.00;;;;;;5118442;28;20459;-58
2023/06/01 05:08:42;;;;;;;23.73;17.50;;;11.40;93.40;;;;;;5116628;28;20487;-58
2023/06/01 05:11:10;;;;;;;25.93;18.67;;;11.40;71.10;;;;;;5116905;28;20563;-59
2023/06/01 05:13:38;;;;;;;25.13;19.33;;;11.40;99.90;;;;;;5117526;28;20481;-59
2023/06/01 05:16:06;;;;;;;26.73;20.77;;;11.40;99.90;;;;;;5117030;28;20546;-60
2023/06/01 05:18:33;;;;;;;27.83;18.73;;;11.30;99.90;;;;;;5114844;28;20457;-60
2023/06/01 05:21:01;;;;;;;28.73;19.10;;;11.40;1.00;;;;;;5117517;28;20552;-60
2023/06/01 05:23:30;;;;;;;27.83;19.53;;;11.40;99.90;;;;;;5117208;28;20459;-61
2023/06/01 05:26:01;;;;;;;27.93;19.93;;;11.40;99.90;;;;;;5115565;28;20463;-60
2023/06/01 05:28:29;;;;;;;23.80;18.97;;;11.40;38.70;;;;;;5117166;28;20495;-59
2023/06/01 05:30:56;;;;;;;26.33;19.97;;;11.40;1.00;;;;;;5116806;28;20899;-60
2023/06/01 05:33:24;;;;;;;25.47;20.00;;;11.30;99.90;;;;;;5116579;28;21491;-60
2023/06/01 05:35:51;;;;;;;25.17;19.60;;;11.30;99.90;;;;;;5113744;28;20459;-60
2023/06/01 05:38:18;;;;;;;30.47;20.30;;;11.20;99.90;;;;;;5115473;28;20460;-60
2023/06/01 05:40:47;;;;;;;29.00;21.60;;;11.40;99.90;;;;;;5113700;28;20509;-59
2023/06/01 05:43:15;;;;;;;29.33;20.20;;;11.30;83.60;;;;;;5114882;28;20864;-60
2023/06/01 05:45:42;;;;;;;27.53;20.60;;;11.40;99.90;;;;;;5112014;28;20470;-60
2023/06/01 05:48:09;;;;;;;28.50;19.97;;;11.60;1.00;;;;;;5113802;28;20455;-60
2023/06/01 05:50:36;;;;;;;26.17;20.67;;;11.70;1.00;;;;;;5113657;28;20458;-60
2023/06/01 05:53:03;;;;;;;26.17;19.60;;;11.80;99.90;;;;;;5115469;28;20461;-60
2023/06/01 05:55:30;;;;;;;29.37;21.00;;;11.90;1.00;;;;;;5114544;28;20464;-60
2023/06/01 05:57:59;;;;;;;25.43;20.40;;;12.00;99.90;;;;;;5116450;28;20460;-60
2023/06/01 06:00:27;;;;;;;24.00;18.30;;;11.80;1.00;;;;;;5115340;28;20483;-60
2023/06/01 06:02:54;;;;;;;24.60;18.77;;;11.60;1.00;;;;;;5113983;28;20948;-60
2023/06/01 06:05:21;;;;;;;25.37;19.70;;;11.40;99.90;;;;;;5115721;28;20468;-60
2023/06/01 06:07:48;;;;;;;27.00;20.40;;;11.40;99.90;;;;;;5115518;28;20550;-61
2023/06/01 06:10:15;;;;;;;32.00;21.90;;;11.40;1.00;;;;;;5116115;28;20467;-61
2023/06/01 06:12:42;;;;;;;29.10;21.23;;;11.50;99.90;;;;;;5116125;28;20463;-61
2023/06/01 06:15:11;;;;;;;30.70;20.80;;;11.50;99.90;;;;;;5116545;28;20463;-60
2023/06/01 06:17:38;;;;;;;29.73;21.07;;;11.50;1.00;;;;;;5117584;28;20465;-60
2023/06/01 06:20:07;;;;;;;29.80;21.97;;;11.40;99.90;;;;;;5118024;28;20854;-60
2023/06/01 06:22:34;;;;;;;25.70;19.33;;;11.60;1.00;;;;;;5117720;28;20550;-60
2023/06/01 06:25:02;;;;;;;28.20;19.90;;;11.80;99.90;;;;;;5118095;28;20470;-61
2023/06/01 06:27:29;;;;;;;25.70;19.30;;;11.80;99.90;;;;;;5117682;28;20546;-59
2023/06/01 06:29:56;;;;;;;23.93;18.60;;;11.80;99.90;;;;;;5117520;28;20558;-59
2023/06/01 06:32:25;;;;;;;25.23;20.00;;;11.80;99.90;;;;;;5117666;28;20551;-61
2023/06/01 06:34:52;;;;;;;27.97;20.90;;;11.80;16.10;;;;;;5116366;28;20466;-61
2023/06/01 06:37:20;;;;;;;27.90;21.57;;;11.70;99.90;;;;;;5116711;28;20499;-62
2023/06/01 06:39:47;;;;;;;26.87;21.27;;;11.80;99.90;;;;;;5117548;28;20487;-60
2023/06/01 06:42:14;;;;;;;31.60;19.90;;;12.00;99.90;;;;;;5117448;28;20456;-60
2023/06/01 06:44:41;;;;;;;26.80;20.33;;;12.00;1.00;;;;;;5121192;28;20888;-60
2023/06/01 06:47:09;;;;;;;25.73;18.73;;;12.10;1.00;;;;;;5121338;28;20467;-60
2023/06/01 06:49:37;;;;;;;25.17;19.50;;;12.00;1.00;;;;;;5119469;28;20462;-59
2023/06/01 06:52:05;;;;;;;25.83;20.33;;;11.80;99.90;;;;;;5119301;27;20931;-59
2023/06/01 06:54:32;;;;;;;25.10;19.53;;;11.50;99.90;;;;;;5118668;28;20467;-61
2023/06/01 06:56:59;;;;;;;26.33;18.90;;;11.70;99.90;;;;;;5119358;28;20463;-61
2023/06/01 06:59:26;;;;;;;23.27;18.43;;;11.80;99.90;;;;;;5119648;28;20544;-60
2023/06/01 07:01:53;;;;;;;21.20;18.30;;;11.90;99.90;;;;;;5119280;28;20483;-59
2023/06/01 07:04:21;;;;;;;23.23;18.10;;;11.70;81.30;;;;;;5119516;28;20467;-60
2023/06/01 07:06:51;;;;;;;30.30;19.47;;;11.60;99.90;;;;;;5120591;28;20524;-60
2023/06/01 07:09:18;;;;;;;22.20;17.47;;;11.60;99.90;;;;;;5120980;28;20489;-59
2023/06/01 07:11:47;;;;;;;23.63;17.30;;;11.80;99.90;;;;;;5120810;28;20889;-59
2023/06/01 07:14:15;;;;;;;24.03;19.07;;;11.90;99.90;;;;;;5121101;28;20558;-60
2023/06/01 07:16:42;;;;;;;24.87;20.03;;;11.90;99.90;;;;;;5120443;28;20463;-60
2023/06/01 07:19:09;;;;;;;22.80;18.47;;;11.60;99.90;;;;;;5119213;28;20470;-60
2023/06/01 07:21:37;;;;;;;24.50;18.77;;;11.70;99.90;;;;;;5114216;28;20471;-60
2023/06/01 07:24:06;;;;;;;23.63;18.13;;;11.40;99.90;;;;;;5118525;28;20532;-60
2023/06/01 07:26:33;;;;;;;27.47;20.30;;;11.70;99.90;;;;;;5118113;28;20463;-61
2023/06/01 07:29:00;;;;;;;21.00;17.70;;;12.00;1.00;;;;;;5102947;28;20468;-60
2023/06/01 07:31:28;;;;;;;22.50;19.07;;;12.20;99.90;;;;;;5095398;28;20901;-61
2023/06/01 07:33:56;;;;;;;27.20;18.27;;;12.40;1.00;;;;;;5096722;28;20471;-61
2023/06/01 07:36:24;;;;;;;21.77;18.10;;;12.60;14.90;;;;;;5099331;28;20464;-60
2023/06/01 07:38:51;;;;;;;22.50;19.47;;;12.30;99.90;;;;;;5117719;28;20463;-59
2023/06/01 07:41:20;;;;;;;25.23;18.90;;;12.40;99.90;;;;;;5118055;28;20491;-59
2023/06/01 07:43:47;;;;;;;25.40;20.67;;;12.30;99.90;;;;;;5119142;28;20460;-59
2023/06/01 07:46:14;;;;;;;27.50;22.83;;;12.20;3.50;;;;;;5120018;28;20443;-60
2023/06/01 07:48:41;;;;;;;24.73;22.03;;;12.00;99.90;;;;;;5119504;28;20464;-59
2023/06/01 07:51:08;;;;;;;28.17;24.30;;;12.20;1.00;;;;;;5118757;28;20456;-62
2023/06/01 07:53:36;;;;;;;27.60;22.50;;;12.70;1.00;;;;;;5117687;28;20464;-61
2023/06/01 07:56:03;;;;;;;26.37;21.67;;;13.10;1.00;;;;;;5118618;28;20464;-60
2023/06/01 07:58:32;;;;;;;26.10;23.30;;;13.20;1.00;;;;;;5118173;28;20427;-60
2023/06/01 08:00:59;;;;;;;28.17;23.73;;;13.50;1.00;;;;;;5117261;28;20765;-59
2023/06/01 08:03:26;;;;;;;27.20;23.77;;;14.00;1.00;;;;;;5076755;28;20552;-60
2023/06/01 08:05:59;;;;;;;31.60;25.47;;;14.50;1.00;;;;;;5078805;28;20890;-60
2023/06/01 08:08:26;;;;;;;32.90;28.63;;;14.70;1.00;;;;;;5078226;28;20442;-61
2023/06/01 08:10:53;;;;;;;36.23;29.60;;;14.70;99.90;;;;;;5078948;28;20458;-60
2023/06/01 08:13:20;;;;;;;32.60;28.17;;;14.60;99.90;;;;;;5078481;28;20457;-60
2023/06/01 08:15:49;;;;;;;36.57;29.47;;;14.80;99.90;;;;;;5078672;28;20463;-61
2023/06/01 08:18:16;;;;;;;36.63;29.60;;;15.10;99.90;;;;;;5078805;28;20468;-63
2023/06/01 08:20:44;;;;;;;40.83;31.73;;;15.20;99.90;;;;;;5078089;28;20501;-60
2023/06/01 08:23:11;;;;;;;42.77;33.73;;;15.40;99.90;;;;;;5078562;28;20470;-62
2023/06/01 08:25:38;;;;;;;40.00;34.50;;;15.40;99.90;;;;;;5078484;28;20487;-61
2023/06/01 08:28:05;;;;;;;40.07;35.00;;;15.70;1.00;;;;;;5078534;28;20446;-60
2023/06/01 08:30:32;;;;;;;42.77;35.47;;;16.10;99.90;;;;;;5078754;28;20454;-61
2023/06/01 08:33:02;;;;;;;44.93;39.60;;;16.30;99.90;;;;;;5078728;28;20564;-61
2023/06/01 08:35:33;;;;;;;45.57;39.50;;;16.70;1.00;;;;;;5078412;28;20953;-61
2023/06/01 08:38:00;;;;;;;47.67;39.57;;;16.90;1.00;;;;;;5078681;28;20887;-59
2023/06/01 08:40:28;;;;;;;46.53;41.17;;;17.10;1.00;;;;;;5077717;28;20485;-60
2023/06/01 08:43:00;;;;;;;44.73;39.83;;;17.30;1.00;;;;;;5076117;28;20462;-59
2023/06/01 08:45:28;;;;;;;43.00;38.50;;;17.20;1.00;;;;;;5077397;28;20901;-60
2023/06/01 08:47:55;;;;;;;44.57;35.60;;;17.70;1.00;;;;;;5077544;28;20913;-59
2023/06/01 08:50:24;;;;;;;43.57;38.87;;;17.70;1.00;;;;;;5078338;28;20818;-63
2023/06/01 08:52:55;;;;;;;41.00;36.50;;;18.30;1.00;;;;;;5076520;28;20461;-59
2023/06/01 08:55:23;;;;;;;42.47;37.97;;;18.70;99.90;;;;;;5077761;28;20472;-60
2023/06/01 08:57:50;;;;;;;41.60;37.30;;;18.90;99.90;;;;;;5077446;28;20511;-59
2023/06/01 09:00:19;;;;;;;45.47;37.13;;;19.20;99.90;;;;;;5076505;28;20489;-61
2023/06/01 09:02:46;;;;;;;40.20;36.10;;;19.70;99.90;;;;;;5103803;28;20575;-61
2023/06/01 09:05:14;;;;;;;39.80;35.50;;;19.90;99.90;;;;;;5115451;28;20464;-59
2023/06/01 09:07:42;;;;;;;39.90;36.00;;;20.20;99.90;;;;;;5115892;28;20814;-59
2023/06/01 09:10:11;;;;;;;40.50;36.37;;;20.00;99.90;;;;;;5116937;28;20455;-59
2023/06/01 09:12:40;;;;;;;41.80;37.60;;;19.80;99.90;;;;;;5116815;28;20888;-60
2023/06/01 09:15:10;;;;;;;38.20;34.40;;;20.20;99.90;;;;;;5118271;28;20811;-60
2023/06/01 09:17:40;;;;;;;41.20;36.80;;;19.80;99.90;;;;;;5118108;28;20815;-60
2023/06/01 09:20:13;;;;;;;40.77;36.73;;;20.20;99.90;;;;;;5118462;28;20544;-58
2023/06/01 09:22:43;;;;;;;40.97;36.87;;;20.80;99.90;;;;;;5117851;28;20460;-59
2023/06/01 09:25:12;;;;;;;41.70;37.80;;;20.50;58.40;;;;;;5117332;28;20973;-59
2023/06/01 09:27:48;;;;;;;39.70;35.93;;;20.20;38.60;;;;;;5117955;28;20885;-59
2023/06/01 09:30:17;;;;;;;38.53;34.73;;;20.10;27.40;;;;;;5118029;28;20467;-60
2023/06/01 09:32:48;;;;;;;39.40;35.60;;;19.60;12.40;;;;;;5117917;28;20824;-59
2023/06/01 09:35:15;;;;;;;41.03;36.87;;;20.00;37.20;;;;;;5118043;28;20943;-60
2023/06/01 09:37:56;;;;;;;38.10;34.40;;;20.40;54.90;;;;;;5118041;28;20495;-61
2023/06/01 09:40:24;;;;;;;42.60;38.53;;;21.00;20.00;;;;;;5116998;28;20480;-60
2023/06/01 09:42:51;;;;;;;37.10;33.53;;;20.70;8.70;;;;;;5115854;28;20460;-59
2023/06/01 09:45:21;;;;;;;36.43;32.87;;;20.20;1.00;;;;;;5117710;28;20463;-60
2023/06/01 09:47:49;;;;;;;34.90;31.33;;;20.70;1.00;;;;;;5117349;28;20470;-58
2023/06/01 09:50:34;;;;;;;33.37;30.37;;;20.90;1.00;;;;;;5117753;28;20558;-59
2023/06/01 09:53:04;;;;;;;29.70;26.90;;;20.20;1.00;;;;;;5117365;28;20496;-58
2023/06/01 09:55:31;;;;;;;28.50;25.70;;;20.50;1.00;;;;;;5116470;28;20451;-58
2023/06/01 09:58:21;;;;;;;29.57;26.77;;;20.90;1.00;;;;;;5117675;28;20459;-58
2023/06/01 10:00:49;;;;;;;30.20;27.33;;;21.20;1.00;;;;;;5117218;28;20520;-59
2023/06/01 10:03:18;;;;;;;24.07;21.97;;;21.90;1.00;;;;;;5117416;28;20454;-59
2023/06/01 10:05:46;;;;;;;26.00;23.50;;;22.20;1.00;;;;;;5117624;28;20872;-59
2023/06/01 10:08:16;;;;;;;29.73;26.83;;;20.90;1.00;;;;;;5117417;28;20463;-60
2023/06/01 10:10:45;;;;;;;24.87;22.37;;;21.40;1.00;;;;;;5115742;28;20451;-60
2023/06/01 10:13:13;;;;;;;24.83;22.40;;;21.80;1.00;;;;;;5115538;28;20499;-59
2023/06/01 10:15:40;;;;;;;21.53;19.10;;;21.70;1.00;;;;;;5116298;28;20888;-60
2023/06/01 10:18:08;;;;;;;20.17;17.97;;;22.30;1.00;;;;;;5117908;28;20520;-61
2023/06/01 10:20:36;;;;;;;20.47;18.50;;;20.80;1.00;;;;;;5120492;28;20498;-61
2023/06/01 10:23:04;;;;;;;20.63;18.70;;;20.30;1.00;;;;;;5120133;28;20459;-63
2023/06/01 10:25:38;;;;;;;20.77;18.80;;;20.90;1.00;;;;;;5119277;28;20530;-60
2023/06/01 10:28:08;;;;;;;20.20;18.20;;;20.20;1.00;;;;;;5121451;28;20528;-61
2023/06/01 10:30:35;;;;;;;18.43;16.77;;;20.60;1.00;;;;;;5120430;28;20485;-60
2023/06/01 10:33:03;;;;;;;17.67;15.87;;;19.90;1.00;;;;;;5104667;28;20755;-61
2023/06/01 10:36:04;;;;;;;17.53;15.87;;;19.50;1.00;;;;;;5101372;28;20909;-61
2023/06/01 10:38:31;;;;;;;15.40;13.80;;;19.80;1.00;;;;;;5100817;28;20769;-60
2023/06/01 10:41:31;;;;;;;15.93;14.17;;;20.70;1.00;;;;;;5101102;28;20498;-59
2023/06/01 10:43:59;;;;;;;14.63;13.07;;;21.00;1.00;;;;;;5104264;28;20470;-62
2023/06/01 10:46:37;;;;;;;14.80;13.23;;;20.30;1.00;;;;;;5101349;28;20460;-59
2023/06/01 10:49:05;;;;;;;15.27;13.93;;;20.90;1.00;;;;;;5100785;28;20757;-60
2023/06/01 10:51:32;;;;;;;15.97;13.70;;;21.80;1.00;;;;;;5100591;28;20470;-60
2023/06/01 10:54:30;;;;;;;14.00;12.60;;;21.80;1.00;;;;;;5102316;28;20558;-60
2023/06/01 10:57:24;;;;;;;14.40;13.10;;;20.80;1.00;;;;;;5102209;28;20559;-60
2023/06/01 11:00:12;;;;;;;15.10;12.93;;;20.40;1.00;;;;;;5102391;28;20459;-60
2023/06/01 11:02:54;;;;;;;14.97;12.70;;;20.60;1.00;;;;;;5100728;28;20480;-60
2023/06/01 11:05:46;;;;;;;15.00;13.50;;;20.70;1.00;;;;;;5104906;28;20515;-61
2023/06/01 11:08:50;;;;;;;14.43;13.03;;;20.70;1.00;;;;;;5118630;28;20538;-61
2023/06/01 11:11:20;;;;;;;14.73;13.23;;;20.60;1.00;;;;;;5117799;28;20514;-59
2023/06/01 11:14:08;;;;;;;15.30;13.70;;;21.50;1.00;;;;;;5118854;28;20849;-60
2023/06/01 11:16:35;;;;;;;16.30;13.70;;;21.30;1.00;;;;;;5120884;28;20833;-58
2023/06/01 11:19:04;;;;;;;14.80;13.17;;;21.00;1.00;;;;;;5118702;28;20830;-58
2023/06/01 11:21:37;;;;;;;15.10;13.60;;;21.70;1.00;;;;;;5120328;28;20491;-60
2023/06/01 11:24:10;;;;;;;14.13;12.80;;;20.90;1.00;;;;;;5118079;28;20456;-61
2023/06/01 11:26:39;;;;;;;14.97;13.27;;;21.60;1.00;;;;;;5118771;28;20753;-59
2023/06/01 11:29:11;;;;;;;16.30;13.30;;;21.10;1.00;;;;;;5118173;28;20470;-60
2023/06/01 11:31:40;;;;;;;13.27;11.97;;;21.40;1.00;;;;;;5118097;28;20949;-61
2023/06/01 11:34:08;;;;;;;14.50;13.00;;;21.90;1.00;;;;;;5118243;28;20885;-59
2023/06/01 11:36:44;;;;;;;15.00;13.60;;;21.80;1.00;;;;;;5118433;28;20470;-58
2023/06/01 11:39:24;;;;;;;13.43;11.13;;;23.10;1.00;;;;;;5118565;28;20876;-60
2023/06/01 11:41:54;;;;;;;14.27;12.87;;;22.80;1.00;;;;;;5120288;28;20965;-62
2023/06/01 11:44:22;;;;;;;12.67;11.40;;;21.70;1.00;;;;;;5118222;28;20455;-61
2023/06/01 11:46:57;;;;;;;16.60;12.43;;;21.20;1.00;;;;;;5117218;28;20451;-60
2023/06/01 11:49:24;;;;;;;12.70;11.50;;;21.80;1.00;;;;;;5116979;27;20798;-60
2023/06/01 11:51:53;;;;;;;13.97;12.57;;;21.70;1.00;;;;;;5113467;28;20466;-60
2023/06/01 11:54:24;;;;;;;14.50;11.97;;;22.30;1.00;;;;;;5117961;28;20474;-62
2023/06/01 11:56:52;;;;;;;14.50;13.00;;;22.40;1.00;;;;;;5111378;27;20475;-60
2023/06/01 11:59:20;;;;;;;13.10;11.70;;;22.00;1.00;;;;;;5097725;28;20460;-60
2023/06/01 12:01:51;;;;;;;13.90;12.60;;;22.90;1.00;;;;;;5113261;28;20808;-60
2023/06/01 12:04:21;;;;;;;15.83;12.63;;;24.00;1.00;;;;;;5118185;28;20460;-59
2023/06/01 12:06:49;;;;;;;14.27;12.80;;;24.60;1.00;;;;;;5116381;28;20513;-60
2023/06/01 12:09:16;;;;;;;15.37;13.87;;;23.80;99.90;;;;;;5103243;28;20521;-60
2023/06/01 12:11:45;;;;;;;16.23;13.63;;;22.40;99.90;;;;;;5109445;27;20463;-63
2023/06/01 12:14:12;;;;;;;15.53;14.07;;;23.00;99.90;;;;;;5115337;28;20475;-61
2023/06/01 12:16:58;;;;;;;16.20;14.50;;;23.20;99.90;;;;;;5114185;28;20455;-60
2023/06/01 12:19:26;;;;;;;17.20;15.50;;;23.00;99.90;;;;;;5114428;28;20536;-62
2023/06/01 12:21:56;;;;;;;18.10;16.17;;;22.40;99.90;;;;;;5113676;28;20489;-60
2023/06/01 12:24:30;;;;;;;16.40;15.00;;;22.50;99.90;;;;;;5114979;28;20463;-61
2023/06/01 12:26:59;;;;;;;15.43;14.03;;;21.90;99.90;;;;;;5114066;28;20937;-60
2023/06/01 12:29:37;;;;;;;17.50;15.13;;;22.30;99.90;;;;;;5113959;28;20455;-60
2023/06/01 12:32:08;;;;;;;18.13;16.37;;;23.60;99.90;;;;;;5110888;28;20455;-62
2023/06/01 12:34:36;;;;;;;16.97;15.30;;;24.60;99.90;;;;;;5113911;28;20458;-60
2023/06/01 12:37:13;;;;;;;16.67;14.93;;;25.40;99.90;;;;;;5112259;27;20475;-59
2023/06/01 12:39:41;;;;;;;19.43;17.73;;;25.00;99.90;;;;;;5135187;27;20880;-62
2023/06/01 12:42:09;;;;;;;20.53;18.47;;;23.40;99.90;;;;;;5137775;27;20907;-60
2023/06/01 12:44:36;;;;;;;18.43;16.80;;;23.60;99.90;;;;;;5136816;27;20466;-60
2023/06/01 12:47:06;;;;;;;20.30;17.90;;;24.70;99.90;;;;;;5137249;27;20458;-61
2023/06/01 12:49:33;;;;;;;19.70;17.80;;;23.90;99.90;;;;;;5139369;27;20465;-60
2023/06/01 12:52:01;;;;;;;24.73;22.33;;;23.80;99.90;;;;;;5135563;27;20483;-60